This is the latest recevied weather packets stored in our database for station/object EFHKFMI. If no packets are shown the sender has not sent any weather packets the latest 1 day(s).
| Time | Temp. | Humidity | Pressure | Rain* | Wind** | Luminosity | Snow |
|---|---|---|---|---|---|---|---|
| 1778081240 | 10.56° C | 36% | 1013.4 hPa | 0 mm | - | - | - |
| 1778080040 | 10.56° C | 33% | 1013.5 hPa | 0 mm | - | - | - |
| 1778078840 | 10.56° C | 33% | 1013.6 hPa | 0 mm | - | - | - |
| 1778074040 | 10.56° C | 31% | 1013.4 hPa | 0 mm | - | - | - |
| 1778072839 | 10° C | 26% | 1013.4 hPa | 0 mm | - | - | - |
| 1778069239 | 11.67° C | 23% | 1013.4 hPa | 0 mm | - | - | - |
| 1778068040 | 11.67° C | 24% | 1013.4 hPa | 0 mm | - | - | - |
| 1778065639 | 11.11° C | 23% | 1013.5 hPa | 0 mm | - | - | - |
| 1778064440 | 10° C | 26% | 1013.3 hPa | 0 mm | - | - | - |
| 1778063240 | 11.11° C | 25% | 1013.3 hPa | 0 mm | - | - | - |
| 1778062040 | 10.56° C | 26% | 1013.2 hPa | 0 mm | - | - | - |
| 1778060840 | 10° C | 27% | 1013.1 hPa | 0 mm | - | - | - |
| 1778056040 | 8.89° C | 36% | 1012.9 hPa | 0 mm | - | - | - |
| 1778051239 | 8.33° C | 44% | 1012.5 hPa | 0 mm | - | - | - |
| 1778050039 | 7.78° C | 47% | 1012.4 hPa | 0 mm | - | - | - |
| 1778047639 | 6.67° C | 56% | 1012.1 hPa | 0 mm | - | - | - |
| 1778046439 | 6.11° C | 59% | 1011.9 hPa | 0 mm | - | - | - |
| 1778045239 | 5.56° C | 62% | 1011.8 hPa | 0 mm | - | - | - |
| 1778044039 | 5° C | 64% | 1011.6 hPa | 0 mm | - | - | - |
| 1778042839 | 3.89° C | 67% | 1011.3 hPa | 0 mm | - | - | - |
| 1778041639 | 3.33° C | 71% | 1011.2 hPa | 0 mm | - | - | - |
| 1778040438 | 2.78° C | 74% | 1011.1 hPa | 0 mm | - | - | - |
| 1778039238 | 1.67° C | 77% | 1010.9 hPa | 0 mm | - | - | - |
| 1778038038 | 1.11° C | 80% | 1010.7 hPa | 0 mm | - | - | - |
| 1778036839 | -0.56° C | 84% | 1010.6 hPa | 0 mm | - | - | - |
* Rain latest hour (hover to see other rain measurements)
** Current wind speed in m/s (hover to see current wind gust speed)